Disclaimer

Please do not use the information listed here in-flight or in-navigation, as they are not provided to us by the airports but are provided by volunteers, so they might be outdated.

Search


Regions


Airport information page

Radio informations:
Tower (TWR) - 118.4 MHz
PRECISION - 133.7 MHz
Ground (GND) - 122.55 MHz
DEP - 123.8 MHz
ZONE CON - 120.6 MHz
Automatic Terminal Information Service (ATIS) - 128.2 MHz
Approach (APP) - 119.1 MHz

Airport informations:
Latitude: 22° 18' 32.11" N
Longitude: 113° 54' 52.57" E
Elevation: 28 feet - 9 meters
Operating hours: Remarks
Operating agency: Civil government, landing fees and diplomatic clearance may be required
Timezone: UTC+8
Fuel: Jet A1, without icing nhibitor.

Runway information:
07R/25L - 12467 x 197 feet< - >3800 x 60 meters
07L/25R - 12467 x 197 feet< - >3800 x 60 meters

Recent METARs:
VHHH 151130Z 07012KT 9999 -RA FEW012 SCT020 24/20 Q1015 NOSIG
VHHH 151200Z 08011KT 9999 -RA FEW012 SCT018 25/21 Q1015 NOSIG
VHHH 151230Z 08010KT 9999 -RA FEW012 SCT018 25/21 Q1016 NOSIG

Airport on the map: